Home > Products > Valid Products > MTR

000
SAUS44 KLZK 240154
MTRMWT
METAR KMWT 240153Z AUTO 13006KT 10SM CLR 22/11 A2984 RMK AO2 SLP098
T02170106





000
SAUS44 KLZK 240054
MTRMWT
METAR KMWT 240053Z AUTO 12003KT 10SM CLR 22/12 A2983 RMK AO2 SLP099
T02220117





000
SAUS44 KLZK 232354
MTRMWT
METAR KMWT 232353Z AUTO 12004KT 10SM CLR 24/12 A2984 RMK AO2 SLP103
T02390117 10261 20239 58009





000
SAUS44 KLZK 232254
MTRMWT
METAR KMWT 232253Z AUTO VRB04KT 10SM CLR 26/11 A2986 RMK AO2 SLP106
T02610111





000
SAUS44 KLZK 232154
MTRMWT
METAR KMWT 232153Z AUTO VRB06KT 10SM CLR 26/11 A2986 RMK AO2 SLP108
T02610111





000
SAUS44 KLZK 232054
MTRMWT
METAR KMWT 232053Z AUTO VRB05KT 10SM CLR 26/11 A2987 RMK AO2 SLP112
T02610106 57024





000
SAUS44 KLZK 231954
MTRMWT
METAR KMWT 231953Z AUTO VRB06KT 10SM CLR 25/12 A2990 RMK AO2 SLP120
T02500122





000
SAUS44 KLZK 231854
MTRMWT
METAR KMWT 231853Z AUTO VRB06KT 10SM CLR 24/12 A2992 RMK AO2 SLP128
T02440122





000
SAUS44 KLZK 231754
MTRMWT
METAR KMWT 231753Z AUTO 16007KT 120V190 10SM CLR 24/12 A2995 RMK AO2
SLP137 T02390122 10239 20072 58017





000
SAUS44 KLZK 231654
MTRMWT
METAR KMWT 231653Z AUTO 14010G14KT 10SM FEW034 23/11 A2998 RMK AO2
SLP146 T02280111





000
SAUS44 KLZK 231554
MTRMWT
METAR KMWT 231553Z AUTO VRB04KT 10SM CLR 21/09 A3000 RMK AO2 SLP154
T02060089





000
SAUS44 KLZK 231454
MTRMWT
METAR KMWT 231453Z AUTO 12005KT 10SM CLR 18/11 A3000 RMK AO2 SLP154
T01830111 50006





000
SAUS44 KLZK 231354
MTRMWT
METAR KMWT 231353Z AUTO VRB04KT 10SM CLR 14/11 A3000 RMK AO2 SLP157
T01440106





000
SAUS44 KLZK 231254
MTRMWT
METAR KMWT 231253Z AUTO 00000KT 10SM CLR 09/09 A3000 RMK AO2 SLP156
T00940089





000
SAUS44 KLZK 231154
MTRMWT
METAR KMWT 231153Z AUTO 00000KT 5SM BR CLR 07/07 A2998 RMK AO2
SLP150 T00720067 10111 20072 53011





000
SAUS44 KLZK 231054
MTRMWT
METAR KMWT 231053Z AUTO 00000KT 6SM BR CLR 08/07 A2996 RMK AO2
SLP141 T00780067





000
SAUS44 KLZK 230954
MTRMWT
METAR KMWT 230953Z AUTO 00000KT 5SM BR CLR 08/07 A2995 RMK AO2
SLP138 T00830072





000
SAUS44 KLZK 230854
MTRMWT
METAR KMWT 230853Z AUTO 00000KT 6SM BR CLR 08/08 A2995 RMK AO2
SLP136 T00830078 58002





000
SAUS44 KLZK 230754
MTRMWT
METAR KMWT 230753Z AUTO 00000KT 7SM CLR 09/08 A2995 RMK AO2 SLP137
T00940083





000
SAUS44 KLZK 230654
MTRMWT
METAR KMWT 230653Z AUTO 00000KT 8SM CLR 11/09 A2995 RMK AO2 SLP138
T01060094





000
SAUS44 KLZK 230554
MTRMWT
METAR KMWT 230553Z AUTO 00000KT 10SM CLR 11/09 A2995 RMK AO2 SLP139
T01060094 10250 20106 402720106 50003





000
SAUS44 KLZK 230454
MTRMWT
METAR KMWT 230453Z AUTO 00000KT 10SM CLR 12/11 A2995 RMK AO2 SLP139
T01220106





000
SAUS44 KLZK 230354
MTRMWT
METAR KMWT 230353Z AUTO 00000KT 10SM CLR 13/11 A2995 RMK AO2 SLP137
T01280106





000
SAUS44 KLZK 230254
MTRMWT
METAR KMWT 230253Z AUTO 00000KT 10SM CLR 14/12 A2994 RMK AO2 SLP136
T01440117 53010





000
SAUS44 KLZK 230154
MTRMWT
METAR KMWT 230153Z AUTO 00000KT 10SM CLR 17/11 A2993 RMK AO2 SLP131
T01670106





000
SAUS44 KLZK 230054
MTRMWT
METAR KMWT 230053Z AUTO 00000KT 10SM CLR 20/09 A2992 RMK AO2 SLP126
T02000094





000
SAUS44 KLZK 222354
MTRMWT
METAR KMWT 222353Z AUTO VRB03KT 10SM CLR 24/07 A2991 RMK AO2 SLP122
T02440067 10272 20239 58005





000
SAUS44 KLZK 222254
MTRMWT
METAR KMWT 222253Z AUTO 00000KT 10SM CLR 26/07 A2992 RMK AO2 SLP123
T02610072





000
SAUS44 KLZK 222154
MTRMWT
METAR KMWT 222153Z AUTO VRB06KT 10SM CLR 26/08 A2992 RMK AO2 SLP125
T02610078





000
SAUS44 KLZK 222054
MTRMWT
METAR KMWT 222053Z AUTO 34006KT 10SM CLR 27/09 A2993 RMK AO2 SLP127
T02670094 58022





000
SAUS44 KLZK 221954
MTRMWT
METAR KMWT 221953Z AUTO VRB03KT 10SM CLR 26/07 A2996 RMK AO2 SLP138
T02610072





000
SAUS44 KLZK 221854
MTRMWT
METAR KMWT 221853Z AUTO 00000KT 10SM CLR 24/07 A2998 RMK AO2 SLP144
T02440072





000
SAUS44 KLZK 221754
MTRMWT
METAR KMWT 221753Z AUTO VRB03KT 10SM CLR 24/08 A2999 RMK AO2 SLP149
T02390083 10239 20139 58008





000
SAUS44 KLZK 221654
MTRMWT
METAR KMWT 221653Z AUTO VRB03KT 10SM CLR 22/11 A3002 RMK AO2 SLP161
T02220106





000
SAUS44 KLZK 221554
MTRMWT
METAR KMWT 221553Z AUTO VRB05KT 10SM CLR 21/12 A3003 RMK AO2 SLP162
T02110117





000
SAUS44 KLZK 221454
MTRMWT
METAR KMWT 221453Z AUTO 10SM CLR 20/14 A3002 RMK AO2 SLP159
T02000144 51014





000
SAUS44 KLZK 221358 COR
MTRMWT
METAR KMWT 221353Z AUTO VRB03KT 9SM CLR 17/16 A3001 RMK AO2 SLP157
T01720161





000
SAUS44 KLZK 221355
MTRMWT
METAR KMWT 221353Z AUTO VRB03KT 9SM CLR 17/16 A3001 RMK AO2 SLP157
T01720161





000
SAUS44 KLZK 221254
MTRMWT
METAR KMWT 221253Z AUTO 30003KT 4SM BR FEW007 15/15 A3000 RMK AO2
SLP155 T01500150





000
SAUS44 KLZK 221235
MTRMWT
SPECI KMWT 221234Z AUTO 00000KT 3SM BR FEW006 14/14 A2999 RMK AO2
T01440144





000
SAUS44 KLZK 221226
MTRMWT
SPECI KMWT 221225Z AUTO 30003KT 1 1/2SM BR FEW006 14/14 A2999 RMK
AO2 VIS 3/4V3 T01440144





000
SAUS44 KLZK 221218
MTRMWT
SPECI KMWT 221217Z AUTO 29003KT 2SM BR FEW006 14/14 A2999 RMK AO2
VIS 1 1/4V3 T01440139





000
SAUS44 KLZK 221212
MTRMWT
SPECI KMWT 221211Z AUTO 00000KT 1SM BR VV006 14/14 A2999 RMK AO2 VIS
1/2V2 1/2 T01440139





000
SAUS44 KLZK 221206
MTRMWT
SPECI KMWT 221205Z AUTO 00000KT 3/4SM BR VV004 14/14 A2998 RMK AO2
VIS 1/2V2 1/2 T01390139





000
SAUS44 KLZK 221154
MTRMWT
METAR KMWT 221153Z AUTO 00000KT 1SM BR CLR 14/14 A2998 RMK AO2 VIS
1/2V2 SLP148 70049 T01440139 10150 20133 53009





000
SAUS44 KLZK 221138
MTRMWT
SPECI KMWT 221137Z AUTO 00000KT 1 1/4SM BR FEW003 14/14 A2997 RMK
AO2 VIS 3/4V2 T01440139





000
SAUS44 KLZK 221115
MTRMWT
SPECI KMWT 221114Z AUTO 00000KT 3/4SM BR VV003 14/14 A2996 RMK AO2
T01390139





000
SAUS44 KLZK 221103
MTRMWT
SPECI KMWT 221102Z AUTO 00000KT 1 1/2SM BR CLR 14/14 A2996 RMK AO2
T01440139





000
SAUS44 KLZK 221054
MTRMWT
METAR KMWT 221053Z AUTO 00000KT 2 1/2SM BR CLR 14/14 A2996 RMK AO2
VIS 1 1/2V4 SLP142 T01440139





000
SAUS44 KLZK 220954
MTRMWT
METAR KMWT 220953Z AUTO 30004KT 4SM BR FEW009 SCT041 BKN048 14/14
A2995 RMK AO2 SLP140 T01440139





000
SAUS44 KLZK 220947
MTRMWT
SPECI KMWT 220946Z AUTO 31004KT 4SM BR FEW009 BKN041 BKN048 14/14
A2995 RMK AO2 T01390139





000
SAUS44 KLZK 220920
MTRMWT
SPECI KMWT 220919Z AUTO 32003KT 3SM BR OVC008 13/13 A2996 RMK AO2
CIG 006V010 T01330133





000
SAUS44 KLZK 220901
MTRMWT
SPECI KMWT 220901Z AUTO 00000KT 2SM BR OVC006 13/13 A2995 RMK AO2
T01330128





000
SAUS44 KLZK 220854
MTRMWT
METAR KMWT 220853Z AUTO 00000KT 1 3/4SM BR BKN006 13/13 A2995 RMK
AO2 SLP139 T01330128 55003





000
SAUS44 KLZK 220843
MTRMWT
SPECI KMWT 220842Z AUTO 00000KT 1SM BR BKN008 13/13 A2994 RMK AO2
T01330128





000
SAUS44 KLZK 220824
MTRMWT
SPECI KMWT 220823Z AUTO 00000KT 1 1/4SM BR SCT006 13/13 A2994 RMK
AO2 VIS 3/4V2 T01330128





000
SAUS44 KLZK 220816
MTRMWT
SPECI KMWT 220815Z AUTO 00000KT 1SM BR VV006 13/13 A2994 RMK AO2
T01330128





000
SAUS44 KLZK 220810
MTRMWT
SPECI KMWT 220809Z AUTO 29003KT 1 1/4SM BR CLR 13/13 A2994 RMK AO2
T01330128





000
SAUS44 KLZK 220754
MTRMWT
METAR KMWT 220753Z AUTO 00000KT 1/2SM FG CLR 13/13 A2994 RMK AO2
SLP134 T01330133





000
SAUS44 KLZK 220750
MTRMWT
SPECI KMWT 220749Z AUTO 00000KT 3/4SM BR CLR 13/13 A2994 RMK AO2





000
SAUS44 KLZK 220725
MTRMWT
SPECI KMWT 220724Z AUTO 00000KT 3/4SM BR VV004 14/13 A2994 RMK AO2
T01390133





000
SAUS44 KLZK 220714
MTRMWT
SPECI KMWT 220713Z AUTO 00000KT 1 3/4SM BR OVC005 14/14 A2994 RMK
AO2 T01390139





000
SAUS44 KLZK 220710
MTRMWT
SPECI KMWT 220709Z AUTO 00000KT 3SM BR OVC005 14/14 A2995 RMK AO2
T01440139





000
SAUS44 KLZK 220703
MTRMWT
SPECI KMWT 220702Z AUTO 00000KT 2SM BR OVC005 14/14 A2995 RMK AO2
VIS 3/4V5 T01440139





000
SAUS44 KLZK 220654
MTRMWT
METAR KMWT 220653Z AUTO 00000KT 1/2SM FG BKN005 14/14 A2996 RMK AO2
SLP141 T01390139





000
SAUS44 KLZK 220647
MTRMWT
SPECI KMWT 220646Z AUTO 00000KT 3/4SM BR BKN003 14/14 A2996 RMK AO2
T01440139





000
SAUS44 KLZK 220627
MTRMWT
SPECI KMWT 220626Z AUTO 00000KT 1 3/4SM BR OVC003 14/14 A2996 RMK
AO2 VIS 1 1/4V3 T01440144





000
SAUS44 KLZK 220613
MTRMWT
SPECI KMWT 220612Z AUTO 32003KT 4SM BR BKN003 15/14 A2996 RMK AO2
T01500144





000
SAUS44 KLZK 220606
MTRMWT
SPECI KMWT 220605Z AUTO 32004KT 2SM BR BKN004 15/14 A2996 RMK AO2
T01500144





000
SAUS44 KLZK 220554
MTRMWT
METAR KMWT 220553Z AUTO 00000KT 1/2SM FG VV004 14/14 A2996 RMK AO2
SLP140 60007 T01440139 10167 20144 402280144 55002





000
SAUS44 KLZK 220544
MTRMWT
SPECI KMWT 220543Z AUTO 00000KT 1SM BR CLR 14/14 A2996 RMK AO2 VIS
1/2V5 T01440144





000
SAUS44 KLZK 220527
MTRMWT
SPECI KMWT 220526Z AUTO 30003KT 2 1/2SM BR CLR 15/14 A2996 RMK AO2
VIS 1 3/4V4 T01500144





000
SAUS44 KLZK 220513
MTRMWT
SPECI KMWT 220512Z AUTO 33003KT 3SM BR FEW002 FEW100 15/14 A2995 RMK
AO2 T01500144





000
SAUS44 KLZK 220503
MTRMWT
SPECI KMWT 220502Z AUTO 30003KT 1SM BR FEW002 BKN100 15/14 A2996 RMK
AO2 T01500144





000
SAUS44 KLZK 220452
MTRMWT
METAR KMWT 220452Z AUTO 00000KT 2SM BR SCT002 BKN100 16/15 A2996 RMK
AO2 SLP138 T01560150





000
SAUS44 KLZK 220354
MTRMWT
METAR KMWT 220353Z AUTO 00000KT 1/2SM FG BKN002 OVC090 16/16 A2997
RMK AO2 SLP142 T01610156





000
SAUS44 KLZK 220351
MTRMWT
SPECI KMWT 220350Z AUTO 00000KT 1/2SM FG SCT002 OVC090 16/16 A2997
RMK AO2





000
SAUS44 KLZK 220340
MTRMWT
SPECI KMWT 220339Z AUTO 00000KT 1 3/4SM BR FEW003 OVC090 16/16 A2997
RMK AO2 T01610156





000
SAUS44 KLZK 220337
MTRMWT
SPECI KMWT 220336Z AUTO 00000KT 2 1/2SM BR OVC090 16/16 A2997 RMK
AO2 T01610156





000
SAUS44 KLZK 220324
MTRMWT
SPECI KMWT 220323Z AUTO 00000KT 1 1/4SM BR FEW015 OVC090 16/16 A2997
RMK AO2 T01610156





000
SAUS44 KLZK 220316
MTRMWT
SPECI KMWT 220315Z AUTO 00000KT 2 1/2SM BR SCT014 OVC090 16/16 A2997
RMK AO2 VIS 1V5 T01610156





000
SAUS44 KLZK 220309
MTRMWT
SPECI KMWT 220308Z AUTO 00000KT 4SM BR BKN014 OVC090 16/16 A2997 RMK
AO2 T01610156





000
SAUS44 KLZK 220301
MTRMWT
SPECI KMWT 220300Z AUTO 00000KT 2 1/2SM BR BKN014 OVC090 16/16 A2997
RMK AO2 T01610156





000
SAUS44 KLZK 220254
MTRMWT
METAR KMWT 220253Z AUTO 00000KT 3SM BR OVC014 16/16 A2997 RMK AO2
SLP145 60007 T01610156 51018





000
SAUS44 KLZK 220210
MTRMWT
SPECI KMWT 220209Z AUTO 00000KT 5SM BR SCT008 BKN015 OVC070 17/16
A2997 RMK AO2 T01670161





000
SAUS44 KLZK 220154
MTRMWT
METAR KMWT 220153Z AUTO 00000KT 5SM BR BKN007 OVC014 17/16 A2996 RMK
AO2 CIG 002V010 SLP143 T01670161





000
SAUS44 KLZK 220149
MTRMWT
SPECI KMWT 220148Z AUTO 00000KT 5SM BR OVC007 17/16 A2996 RMK AO2
CIG 002V010





000
SAUS44 KLZK 220128
MTRMWT
SPECI KMWT 220127Z AUTO 32003KT 4SM BR OVC004 17/16 A2995 RMK AO2
T01670161





000
SAUS44 KLZK 220111 COR
MTRMWT
SPECI KMWT 220108Z AUTO 00000KT 4SM BR BKN006 OVC013 17/16 A2993 RMK
AO2 T01670161





000
SAUS44 KLZK 220101
MTRMWT
SPECI KMWT 220100Z AUTO 00000KT 2 1/2SM BR BKN006 OVC012 17/16 A2992
RMK AO2 VIS 2 1/2V3 CIG 002V009 T01670161





000
SAUS44 KLZK 220054
MTRMWT
METAR KMWT 220053Z AUTO 00000KT 3SM BR BKN006 OVC012 17/16 A2992 RMK
AO2 RAE34 CIG 002V009 SLP128 P0007 T01670161





000
SAUS44 KLZK 220032
MTRMWT
SPECI KMWT 220031Z AUTO 00000KT 4SM -RA BR BKN009 BKN014 OVC080
17/16 A2992 RMK AO2 P0007 T01670161





000
SAUS44 KLZK 220022
MTRMWT
SPECI KMWT 220021Z AUTO 00000KT 2SM RA BR BKN009 OVC014 17/16 A2993
RMK AO2 P0006 T01670161





000
SAUS44 KLZK 220019
MTRMWT
SPECI KMWT 220018Z AUTO 00000KT 1 3/4SM RA BR FEW006 OVC011 17/16
A2993 RMK AO2 P0005 T01670161





000
SAUS44 KLZK 220010
MTRMWT
SPECI KMWT 220009Z AUTO 00000KT 2 1/2SM -RA BR BKN008 BKN013 OVC100
17/16 A2993 RMK AO2 P0003 T01670161





000
SAUS44 KLZK 220001
MTRMWT
SPECI KMWT 220000Z AUTO 07003KT 2SM RA BR SCT006 OVC011 17/16 A2993
RMK AO2 CIG 008V013 P0002 T01670161





000
SAUS44 KLZK 212354
MTRMWT
METAR KMWT 212353Z AUTO 00000KT 3SM -RA BR BKN006 OVC009 17/16 A2994
RMK AO2 CIG 003V008 SLP135 P0008 60042 T01670161 10217 20167 58001





000
SAUS44 KLZK 212342
MTRMWT
SPECI KMWT 212341Z AUTO 00000KT 3SM -RA BR SCT004 OVC009 17/16 A2993
RMK AO2 CIG 008V012 P0008 T01720161





000
SAUS44 KLZK 212320
MTRMWT
SPECI KMWT 212319Z AUTO 00000KT 3SM -RA BR BKN004 BKN014 OVC070
17/16 A2994 RMK AO2 P0006 T01720161





000
SAUS44 KLZK 212313
MTRMWT
SPECI KMWT 212312Z AUTO 00000KT 2SM RA BR FEW004 BKN048 OVC090 17/17
A2994 RMK AO2 P0005 T01720167





000
SAUS44 KLZK 212301
MTRMWT
SPECI KMWT 212301Z AUTO 00000KT 1 1/2SM RA BR SCT014 OVC048 17/17
A2994 RMK AO2 P0002 T01720167





000
SAUS44 KLZK 212254
MTRMWT
METAR KMWT 212253Z AUTO 00000KT 2SM RA BR FEW014 OVC048 17/17 A2995
RMK AO2 RAB15 SLP137 P0002 T01720167





000
SAUS44 KLZK 212251
MTRMWT
SPECI KMWT 212250Z AUTO 00000KT 3SM RA BR OVC048 17/17 A2995 RMK AO2
RAB15 P0001





000
SAUS44 KLZK 212239
MTRMWT
SPECI KMWT 212238Z AUTO 00000KT 2SM -RA BR SCT009 OVC048 17/17 A2995
RMK AO2 RAB15 P0000 T01720167





000
SAUS44 KLZK 212232
MTRMWT
SPECI KMWT 212231Z AUTO 00000KT 3SM -RA BR SCT009 OVC050 17/17 A2995
RMK AO2 RAB15 P0000 T01720167





000
SAUS44 KLZK 212206
MTRMWT
SPECI KMWT 212205Z AUTO 00000KT 7SM SCT004 BKN010 OVC055 17/17 A2994
RMK AO2 T01720167





000
SAUS44 KLZK 212154
MTRMWT
METAR KMWT 212153Z AUTO 00000KT 5SM BR BKN004 OVC060 17/17 A2994 RMK
AO2 RAE36 SLP135 P0003 T01720167





000
SAUS44 KLZK 212054
MTRMWT
METAR KMWT 212053Z AUTO 00000KT 4SM -RA BR FEW005 BKN095 OVC110
17/16 A2997 RMK AO2 SLP143 P0011 60029 T01720161 56015





000
SAUS44 KLZK 212047
MTRMWT
SPECI KMWT 212046Z AUTO 00000KT 4SM -RA BR FEW005 BKN090 OVC110
17/16 A2996 RMK AO2 P0011 T01720161





000
SAUS44 KLZK 212020
MTRMWT
SPECI KMWT 212019Z AUTO VRB05KT 3SM -RA BR BKN060 BKN080 OVC100
17/16 A2996 RMK AO2 P0011 T01670161





000
SAUS44 KLZK 212004
MTRMWT
SPECI KMWT 212003Z AUTO 16006KT 1 3/4SM +RA BR FEW011 BKN050 OVC080
17/16 A2997 RMK AO2 PRESFR P0004 T01670161





000
SAUS44 KLZK 211958
MTRMWT
SPECI KMWT 211957Z AUTO 14007KT 3SM -RA BR FEW017 BKN042 OVC080
17/16 A2998 RMK AO2 PRESFR P0000 T01720161





000
SAUS44 KLZK 211954
MTRMWT
METAR KMWT 211953Z AUTO 13003KT 1 3/4SM -RA BR FEW017 BKN032 OVC080
17/16 A2998 RMK AO2 RAE1855B31 PRESFR SLP149 P0011 T01720156





000
SAUS44 KLZK 211937
MTRMWT
SPECI KMWT 211936Z AUTO 00000KT 1 3/4SM +RA BR FEW012 BKN034 OVC060
18/17 A3001 RMK AO2 RAE1855B31 P0001 T01830167





000
SAUS44 KLZK 211854
MTRMWT
METAR KMWT 211853Z AUTO 00000KT 8SM -RA FEW050 OVC065 19/17 A2999
RMK AO2 SLP151 P0007 T01890172





000
SAUS44 KLZK 211829
MTRMWT
SPECI KMWT 211828Z AUTO 00000KT 3SM RA BR SCT055 BKN065 OVC090 19/17
A3001 RMK AO2 P0005 T01890167





000
SAUS44 KLZK 211817
MTRMWT
SPECI KMWT 211816Z AUTO VRB03KT 1 3/4SM +RA SCT055 BKN070 OVC085
19/17 A3001 RMK AO2 VIS 3/4V5 P0001 T01940167





000
SAUS44 KLZK 211754
MTRMWT
METAR KMWT 211753Z AUTO VRB04KT 9SM -RA FEW060 BKN080 OVC095 22/15
A3001 RMK AO2 RAB49 SLP156 P0000 60000 T02170150 10228 20150 58003





000
SAUS44 KLZK 211654
MTRMWT
METAR KMWT 211653Z AUTO VRB06KT 10SM FEW075 BKN100 22/14 A3002 RMK
AO2 RAB17E28 SLP159 P0000 T02220144





000
SAUS44 KLZK 211554
MTRMWT
METAR KMWT 211553Z AUTO 00000KT 10SM CLR 21/16 A3002 RMK AO2 SLP161
T02060161





000
SAUS44 KLZK 211454
MTRMWT
METAR KMWT 211453Z AUTO 00000KT 10SM FEW100 19/17 A3002 RMK AO2
SLP160 60000 T01940167 58002





000
SAUS44 KLZK 211354
MTRMWT
METAR KMWT 211353Z AUTO 00000KT 8SM OVC095 17/16 A3003 RMK AO2 RAE34
SLP163 P0000 T01720156





000
SAUS44 KLZK 211254
MTRMWT
METAR KMWT 211253Z AUTO 00000KT 4SM -RA BR OVC090 16/15 A3003 RMK
AO2 RAB45 SLP163 P0000 T01560150





000
SAUS44 KLZK 211154
MTRMWT
METAR KMWT 211153Z AUTO 13003KT 5SM BR OVC100 15/14 A3003 RMK AO2
SLP161 60001 70001 T01500144 10167 20150 53008





000
SAUS44 KLZK 211054
MTRMWT
METAR KMWT 211053Z AUTO 00000KT 8SM FEW080 FEW090 BKN110 16/14 A3002
RMK AO2 RAB32E48 SLP159 P0000 T01560144





000
SAUS44 KLZK 210954
MTRMWT
METAR KMWT 210953Z AUTO 13004KT 6SM BR SCT110 16/14 A2999 RMK AO2
SLP146 T01560144





000
SAUS44 KLZK 210854
MTRMWT
METAR KMWT 210853Z AUTO 00000KT 7SM BKN110 16/15 A3000 RMK AO2 RAE19
SLP151 P0001 60001 T01560150 58014





000
SAUS44 KLZK 210754
MTRMWT
METAR KMWT 210753Z AUTO 00000KT 9SM -RA OVC100 16/15 A3001 RMK AO2
RAB0659E16B45 SLP155 P0000 T01610150





000
SAUS44 KLZK 210654
MTRMWT
METAR KMWT 210653Z AUTO 00000KT 9SM OVC100 16/15 A3003 RMK AO2 RAE04
SLP164 P0000 T01610150





000
SAUS44 KLZK 210554
MTRMWT
METAR KMWT 210553Z AUTO 00000KT 7SM -RA BKN090 OVC100 17/15 A3004
RMK AO2 RAB38 SLP167 P0000 60000 T01670150 10233 20167 402500100
58010





000
SAUS44 KLZK 210454
MTRMWT
METAR KMWT 210453Z AUTO 00000KT 10SM FEW075 BKN110 17/14 A3006 RMK
AO2 SLP171 T01720139





000
SAUS44 KLZK 210354
MTRMWT
METAR KMWT 210353Z AUTO 00000KT 10SM FEW100 17/14 A3006 RMK AO2
SLP173 T01720144





000
SAUS44 KLZK 210254
MTRMWT
METAR KMWT 210253Z AUTO 00000KT 10SM BKN110 18/13 A3007 RMK AO2
SLP178 T01830133 53004





    US Dept of Commerce
    National Oceanic and Atmospheric Administration
    National Weather Service
    1325 East West Highway
    Silver Spring, MD 20910
    Page Author: NWS Internet Services Team
Disclaimer
Information Quality
Credits
Glossary
Privacy Policy
Freedom of Information Act (FOIA)
About Us
Career Opportunities